Time;durP1;ratioP1;P1;durP2;ratioP2;P2;SDS_P1;SDS_P2;PMS_P1;PMS_P2;Temp;Humidity;BMP_temperature;BMP_pressure;BME280_temperature;BME280_humidity;BME280_pressure;Samples;Min_cycle;Max_cycle;Signal;HPM_P1;HPM_P2
2023/07/06 00:01:42;;;;;;;;;;;21.30;36.80;;;20.60;37.38;101108.97;12271111;19;19907;-87
2023/07/06 00:05:45;;;;;;;;;;;21.30;36.90;;;20.50;37.10;101121.41;12269553;19;20322;-88
2023/07/06 00:09:48;;;;;;;;;;;21.10;36.80;;;20.42;37.56;101121.25;12270138;19;19997;-88
2023/07/06 00:13:50;;;;;;;;;;;21.00;36.90;;;20.20;37.49;101101.97;12265041;19;19923;-88
2023/07/06 00:17:51;;;;;;;;;;;21.00;37.00;;;20.15;37.37;101101.56;12269375;19;19915;-88
2023/07/06 00:21:52;;;;;;;;;;;20.90;37.00;;;20.15;37.58;101109.50;12269468;19;20330;-88
2023/07/06 00:25:54;;;;;;;;;;;20.80;37.10;;;19.99;37.32;101101.25;12270232;19;19923;-87
2023/07/06 00:30:15;;;;;;;;;;;20.70;37.10;;;19.93;37.55;101102.63;12266950;19;19914;-87
2023/07/06 00:34:18;;;;;;;;;;;20.60;37.10;;;19.83;37.77;101105.25;12263746;19;19931;-87
2023/07/06 00:38:22;;;;;;;;;;;20.50;37.20;;;19.75;37.41;101102.44;12265205;19;19915;-88
2023/07/06 00:42:24;;;;;;;;;;;20.50;37.20;;;19.75;37.50;101115.69;12263997;19;19922;-88
2023/07/06 00:46:33;;;;;;;;;;;20.40;37.20;;;19.56;37.46;101110.28;12265686;19;19918;-87
2023/07/06 00:50:35;;;;;;;;;;;20.30;37.20;;;19.57;37.40;101123.38;12266084;19;19918;-88
2023/07/06 00:54:40;;;;;;;;;;;20.30;37.20;;;19.43;37.40;101129.06;12262693;19;19923;-88
2023/07/06 00:58:48;;;;;;;;;;;20.20;37.30;;;19.30;37.66;101129.25;12265162;19;19923;-87
2023/07/06 01:02:55;;;;;;;;;;;20.00;37.40;;;19.14;37.74;101127.06;12264581;19;19956;-88
2023/07/06 01:06:58;;;;;;;;;;;19.90;37.40;;;19.07;37.86;101125.94;12266139;19;19919;-88
2023/07/06 01:11:00;;;;;;;;;;;19.90;37.50;;;18.69;38.02;101070.94;12269024;19;20321;-88
2023/07/06 01:15:02;;;;;;;;;;;19.80;37.50;;;19.11;38.13;101142.41;12266127;19;19919;-88
2023/07/06 01:19:30;;;;;;;;;;;19.70;37.50;;;19.04;38.16;101138.56;12257750;19;20398;-88
2023/07/06 01:23:34;;;;;;;;;;;19.70;37.60;;;19.03;38.17;101140.38;12265623;19;19923;-88
2023/07/06 01:27:55;;;;;;;;;;;19.60;37.60;;;18.99;38.25;101141.63;12266581;19;19918;-88
2023/07/06 01:32:01;;;;;;;;;;;19.60;37.60;;;18.82;38.17;101119.22;12266069;19;19964;-88
2023/07/06 01:36:24;;;;;;;;;;;19.60;37.70;;;18.89;38.21;101138.91;12261301;19;20349;-86
2023/07/06 01:40:26;;;;;;;;;;;19.50;37.80;;;18.81;38.28;101136.06;12257712;19;19915;-88
2023/07/06 01:44:28;;;;;;;;;;;19.50;37.80;;;18.74;38.16;101132.22;12268220;19;19919;-88
2023/07/06 01:48:30;;;;;;;;;;;19.50;37.80;;;18.55;38.39;101117.03;12277414;19;19914;-88
2023/07/06 01:52:52;;;;;;;;;;;19.40;37.80;;;18.71;38.37;101145.69;12274157;19;19974;-88
2023/07/06 01:57:05;;;;;;;;;;;19.40;37.90;;;18.58;38.41;101140.59;12272988;19;19941;-88
2023/07/06 02:01:09;;;;;;;;;;;19.40;37.90;;;18.45;38.43;101129.34;12277492;19;19925;-87
2023/07/06 02:05:13;;;;;;;;;;;19.30;37.90;;;18.49;38.54;101144.81;12276659;19;19987;-88
2023/07/06 02:09:14;;;;;;;;;;;19.20;37.90;;;18.45;38.56;101153.16;12275402;19;19942;-86
2023/07/06 02:13:17;;;;;;;;;;;19.20;38.00;;;18.07;38.58;101107.69;12266148;19;19926;-87
2023/07/06 02:17:22;;;;;;;;;;;19.10;38.00;;;18.34;38.34;101170.72;12263643;19;19926;-86
2023/07/06 02:21:25;;;;;;;;;;;19.10;38.00;;;18.18;38.70;101141.19;12266608;19;20254;-88
2023/07/06 02:25:26;;;;;;;;;;;19.00;38.00;;;18.15;38.62;101159.97;12271079;19;19915;-88
2023/07/06 02:29:28;;;;;;;;;;;19.00;38.20;;;17.77;38.48;101125.97;12275530;19;19927;-87
2023/07/06 02:33:30;;;;;;;;;;;18.80;38.10;;;17.97;38.65;101174.63;12268597;19;20318;-87
2023/07/06 02:37:32;;;;;;;;;;;18.80;38.20;;;17.45;38.54;101097.66;12274750;19;19947;-87
2023/07/06 02:41:35;;;;;;;;;;;18.70;38.30;;;17.24;38.78;101071.97;12273602;19;19926;-87
2023/07/06 02:45:37;;;;;;;;;;;18.60;38.20;;;17.59;38.63;101142.31;12271790;19;19923;-86
2023/07/06 02:49:39;;;;;;;;;;;18.50;38.20;;;17.61;38.77;101148.31;12268820;19;19940;-87
2023/07/06 02:53:41;;;;;;;;;;;18.50;38.20;;;17.56;38.68;101160.19;12263131;19;19915;-87
2023/07/06 02:57:43;;;;;;;;;;;18.40;38.30;;;17.52;38.89;101166.66;12274132;19;19907;-87
2023/07/06 03:01:48;;;;;;;;;;;18.30;38.40;;;17.39;38.79;101156.19;12270366;19;19996;-88
2023/07/06 03:05:49;;;;;;;;;;;18.20;38.40;;;17.32;38.92;101174.31;12272037;19;19915;-88
2023/07/06 03:09:51;;;;;;;;;;;18.10;38.50;;;17.24;39.03;101159.06;12271955;19;19924;-87
2023/07/06 03:13:55;;;;;;;;;;;18.10;38.60;;;17.02;39.11;101135.28;12269142;19;19922;-87
2023/07/06 03:17:57;;;;;;;;;;;18.00;38.60;;;17.20;38.90;101176.09;12272862;19;19939;-87
2023/07/06 03:21:58;;;;;;;;;;;18.00;38.60;;;17.15;39.04;101183.53;12272571;19;19914;-87
2023/07/06 03:26:00;;;;;;;;;;;17.90;38.70;;;16.70;39.21;101138.50;12274537;19;19915;-87
2023/07/06 03:30:07;;;;;;;;;;;17.90;38.70;;;17.07;38.98;101196.47;12267866;19;19934;-87
2023/07/06 03:34:09;;;;;;;;;;;17.90;38.80;;;17.02;39.00;101209.16;12268584;19;19923;-88
2023/07/06 03:38:12;;;;;;;;;;;17.80;38.90;;;16.88;39.29;101185.59;12270841;19;20450;-87
2023/07/06 03:42:14;;;;;;;;;;;17.80;38.90;;;16.90;39.34;101202.13;12253314;19;19919;-86
2023/07/06 03:46:16;;;;;;;;;;;17.70;38.80;;;16.80;39.23;101200.19;12258498;19;19919;-87
2023/07/06 03:50:20;;;;;;;;;;;17.70;39.00;;;16.78;39.48;101210.00;12258581;19;20409;-88
2023/07/06 03:54:21;;;;;;;;;;;17.60;38.60;;;16.73;39.28;101214.75;12259377;19;20341;-87
2023/07/06 03:58:23;;;;;;;;;;;17.60;39.10;;;16.67;39.57;101217.00;12266086;19;19915;-88
2023/07/06 04:02:25;;;;;;;;;;;17.40;39.20;;;16.56;39.44;101202.81;12267105;19;19915;-87
2023/07/06 04:06:28;;;;;;;;;;;17.50;39.10;;;16.40;39.59;101172.41;12267657;19;19919;-88
2023/07/06 04:10:31;;;;;;;;;;;17.50;39.30;;;16.50;39.75;101200.63;12264797;19;19918;-87
2023/07/06 04:14:32;;;;;;;;;;;17.40;39.30;;;16.52;39.81;101196.06;12249635;19;19950;-86
2023/07/06 04:18:34;;;;;;;;;;;17.50;40.10;;;16.40;39.77;101188.22;12258112;19;19931;-87
2023/07/06 04:22:36;;;;;;;;;;;17.40;39.40;;;16.60;39.99;101225.34;12258137;19;20265;-87
2023/07/06 04:26:40;;;;;;;;;;;17.40;39.70;;;16.57;39.85;101222.94;12257443;19;19919;-87
2023/07/06 04:30:44;;;;;;;;;;;17.40;39.70;;;16.54;39.81;101211.78;12254654;19;19919;-87
2023/07/06 04:34:46;;;;;;;;;;;17.40;39.70;;;16.64;39.92;101223.34;12244903;19;19927;-86
2023/07/06 04:38:49;;;;;;;;;;;17.50;39.80;;;16.63;40.11;101229.56;12246998;19;20278;-87
2023/07/06 04:42:51;;;;;;;;;;;17.50;39.90;;;16.73;40.05;101230.56;12251602;19;19915;-87
2023/07/06 04:46:53;;;;;;;;;;;17.60;40.20;;;16.82;40.09;101242.28;12253436;19;19911;-87
2023/07/06 04:50:55;;;;;;;;;;;17.70;40.50;;;16.69;40.34;101215.06;12252785;19;20393;-87
2023/07/06 04:54:58;;;;;;;;;;;17.70;40.60;;;17.05;40.26;101253.78;12249319;19;19949;-87
2023/07/06 04:59:00;;;;;;;;;;;17.80;40.50;;;17.07;40.30;101245.78;12253783;19;19950;-87
2023/07/06 05:03:03;;;;;;;;;;;18.00;40.40;;;17.29;40.50;101255.56;12248480;19;20330;-87
2023/07/06 05:07:05;;;;;;;;;;;18.20;40.40;;;17.42;40.35;101251.88;12253228;19;19918;-87
2023/07/06 05:11:07;;;;;;;;;;;18.30;40.70;;;17.49;40.63;101246.97;12252619;19;19923;-87
2023/07/06 05:15:09;;;;;;;;;;;18.50;40.60;;;17.48;40.70;101213.59;12248603;19;19922;-87
2023/07/06 05:19:10;;;;;;;;;;;18.60;40.40;;;17.85;40.64;101263.66;12252377;19;19923;-87
2023/07/06 05:23:12;;;;;;;;;;;18.80;40.40;;;17.94;40.60;101257.63;12249484;19;19927;-86
2023/07/06 05:27:14;;;;;;;;;;;18.90;40.40;;;17.98;40.51;101251.13;12251789;19;19990;-86
2023/07/06 05:31:16;;;;;;;;;;;19.10;40.40;;;17.99;40.72;101239.63;12251820;19;19923;-87
2023/07/06 05:35:18;;;;;;;;;;;19.20;40.90;;;18.26;40.86;101267.50;12249222;19;19978;-82
2023/07/06 05:39:20;;;;;;;;;;;19.30;40.40;;;18.37;40.73;101259.53;12245148;19;19940;-82
2023/07/06 05:43:22;;;;;;;;;;;19.50;41.00;;;18.56;40.91;101272.13;12243101;19;20475;-83
2023/07/06 05:47:23;;;;;;;;;;;19.60;40.60;;;18.56;40.82;101250.97;12247221;19;19927;-85
2023/07/06 05:51:25;;;;;;;;;;;19.80;40.60;;;18.88;41.03;101289.91;12248132;19;19915;-84
2023/07/06 05:55:29;;;;;;;;;;;20.00;40.60;;;19.05;40.88;101296.47;12245522;19;19919;-84
2023/07/06 05:59:30;;;;;;;;;;;20.10;40.40;;;19.04;40.78;101273.59;12246182;19;19918;-82
2023/07/06 06:03:32;;;;;;;;;;;20.20;40.40;;;19.21;40.92;101288.94;12247505;19;19918;-83
2023/07/06 06:07:33;;;;;;;;;;;20.40;40.50;;;19.18;41.25;101275.97;12247676;19;20364;-84
2023/07/06 06:11:35;;;;;;;;;;;20.50;40.50;;;19.49;41.04;101299.88;12243636;19;19927;-82
2023/07/06 06:15:37;;;;;;;;;;;20.70;40.50;;;19.57;41.35;101292.13;12242850;19;19923;-82
2023/07/06 06:19:39;;;;;;;;;;;20.70;40.30;;;19.78;41.13;101322.13;12242823;19;19990;-83
2023/07/06 06:23:42;;;;;;;;;;;20.90;40.60;;;19.97;41.35;101317.94;12242884;19;19919;-84
2023/07/06 06:27:46;;;;;;;;;;;21.00;40.40;;;20.09;41.24;101308.91;12252204;19;19914;-82
2023/07/06 06:31:48;;;;;;;;;;;21.20;40.60;;;20.26;41.09;101310.13;12256171;19;19919;-82
2023/07/06 06:35:50;;;;;;;;;;;21.30;40.50;;;20.31;41.04;101284.88;12253032;19;20382;-83
2023/07/06 06:39:51;;;;;;;;;;;21.50;40.50;;;20.54;41.32;101300.59;12258700;19;19922;-84
2023/07/06 06:43:56;;;;;;;;;;;21.70;40.50;;;20.72;41.34;101311.41;12248982;19;20000;-84
2023/07/06 06:47:58;;;;;;;;;;;21.90;40.40;;;20.77;41.34;101307.38;12254957;19;19926;-84
2023/07/06 06:52:03;;;;;;;;;;;22.00;40.30;;;21.06;41.49;101321.66;12256351;19;19936;-84
2023/07/06 06:56:05;;;;;;;;;;;22.20;40.20;;;21.23;41.40;101325.47;12256744;19;19940;-83
2023/07/06 07:00:09;;;;;;;;;;;22.40;40.30;;;21.33;41.26;101336.91;12255972;19;19923;-84
2023/07/06 07:04:11;;;;;;;;;;;22.50;40.10;;;21.46;41.11;101326.03;12252794;19;19922;-83
2023/07/06 07:08:13;;;;;;;;;;;22.60;40.10;;;21.37;41.11;101288.69;12254933;19;19940;-83
2023/07/06 07:12:14;;;;;;;;;;;22.80;40.20;;;21.76;41.05;101333.00;12252215;19;19975;-83
2023/07/06 07:16:16;;;;;;;;;;;22.90;39.90;;;21.86;41.48;101333.81;12250647;19;19978;-84
2023/07/06 07:20:21;;;;;;;;;;;23.00;39.90;;;21.76;41.05;101301.91;12252032;19;19923;-83
2023/07/06 07:24:22;;;;;;;;;;;23.20;39.70;;;22.11;41.46;101342.97;12247809;19;19979;-82
2023/07/06 07:28:24;;;;;;;;;;;23.20;39.60;;;22.20;41.42;101339.50;12252813;19;19922;-83
2023/07/06 07:32:25;;;;;;;;;;;23.30;39.60;;;22.39;41.00;101346.56;12248904;19;19923;-83
2023/07/06 07:36:27;;;;;;;;;;;23.50;39.50;;;22.47;41.19;101343.19;12252067;19;19922;-84
2023/07/06 07:40:29;;;;;;;;;;;23.70;39.60;;;22.64;41.29;101342.38;12250477;19;19918;-84
2023/07/06 07:44:31;;;;;;;;;;;23.80;39.30;;;22.56;41.15;101309.50;12249286;19;19914;-84
2023/07/06 07:48:38;;;;;;;;;;;23.90;39.20;;;22.90;40.90;101342.53;12250040;19;19922;-84
2023/07/06 07:52:39;;;;;;;;;;;24.10;39.20;;;23.00;41.25;101358.44;12248728;19;19929;-84
2023/07/06 07:56:42;;;;;;;;;;;24.20;39.10;;;22.99;41.10;101350.63;12250100;19;19999;-84
2023/07/06 08:00:49;;;;;;;;;;;24.30;39.00;;;23.08;40.87;101357.72;12250951;19;20600;-84
2023/07/06 08:04:51;;;;;;;;;;;24.30;38.80;;;23.12;41.02;101364.44;12246639;19;19926;-84
2023/07/06 08:08:52;;;;;;;;;;;24.30;38.80;;;23.10;40.62;101361.91;12246895;19;19915;-84
2023/07/06 08:12:54;;;;;;;;;;;24.30;38.80;;;23.19;40.95;101371.63;12245637;19;19926;-84
2023/07/06 08:16:56;;;;;;;;;;;24.30;38.80;;;23.14;40.80;101357.97;12250666;19;19944;-85
2023/07/06 08:20:59;;;;;;;;;;;24.30;38.80;;;23.27;40.59;101376.22;12248107;19;20238;-84
2023/07/06 08:25:00;;;;;;;;;;;24.40;38.80;;;23.11;40.86;101344.06;12245577;19;19933;-84
2023/07/06 08:29:04;;;;;;;;;;;24.40;38.70;;;23.35;40.62;101376.28;12249235;19;19978;-85
2023/07/06 08:33:07;;;;;;;;;;;24.40;38.80;;;23.35;40.52;101360.28;12243837;19;19929;-84
2023/07/06 08:37:08;;;;;;;;;;;24.50;38.80;;;23.55;40.47;101370.81;12248951;19;20315;-83
2023/07/06 08:41:30;;;;;;;;;;;24.60;38.80;;;23.71;40.47;101381.66;12247949;19;19919;-85
2023/07/06 08:45:42;;;;;;;;;;;24.70;38.80;;;23.70;40.53;101368.44;12243534;19;21352;-84
2023/07/06 08:49:43;;;;;;;;;;;24.80;38.60;;;23.74;40.46;101370.69;12246096;19;19911;-83
2023/07/06 08:54:00;;;;;;;;;;;24.90;38.60;;;23.95;40.31;101386.34;12242895;19;19936;-84
2023/07/06 08:58:03;;;;;;;;;;;25.00;38.50;;;23.97;40.32;101381.66;12248677;19;19907;-83
2023/07/06 09:02:25;;;;;;;;;;;25.10;38.60;;;24.08;40.62;101377.91;12244992;19;19918;-83
2023/07/06 09:06:28;;;;;;;;;;;25.20;38.50;;;24.18;40.30;101389.31;12246127;19;19922;-83
2023/07/06 09:10:30;;;;;;;;;;;25.30;38.00;;;24.24;40.14;101377.16;12246416;19;19914;-84
2023/07/06 09:14:32;;;;;;;;;;;25.30;38.20;;;24.20;40.53;101349.97;12244626;19;19919;-83
2023/07/06 09:18:34;;;;;;;;;;;25.40;38.10;;;24.48;40.07;101395.19;12247108;19;19919;-84
2023/07/06 09:22:38;;;;;;;;;;;25.60;38.30;;;24.58;40.28;101395.91;12245481;19;19919;-83
2023/07/06 09:26:42;;;;;;;;;;;25.60;38.00;;;24.54;39.90;101383.84;12246104;19;19925;-84
2023/07/06 09:30:45;;;;;;;;;;;25.70;38.00;;;24.56;40.17;101395.22;12247558;19;19932;-85
2023/07/06 09:34:50;;;;;;;;;;;25.60;38.00;;;24.57;40.02;101394.22;12242413;19;19919;-84
2023/07/06 09:38:52;;;;;;;;;;;25.60;38.10;;;24.66;40.24;101384.44;12246552;19;19924;-84
2023/07/06 09:42:54;;;;;;;;;;;25.70;38.30;;;24.80;39.82;101399.00;12246617;19;19932;-85
2023/07/06 09:46:59;;;;;;;;;;;25.70;38.20;;;24.82;39.98;101378.31;12244925;19;19922;-83
2023/07/06 09:51:13;;;;;;;;;;;25.90;38.20;;;24.90;39.80;101368.47;12245068;19;20003;-84
2023/07/06 09:55:24;;;;;;;;;;;25.90;38.00;;;25.02;39.78;101382.34;12243806;19;19953;-84
2023/07/06 09:59:26;;;;;;;;;;;26.00;38.20;;;24.75;39.57;101343.38;12265198;19;19915;-83
2023/07/06 10:03:36;;;;;;;;;;;26.00;37.70;;;25.00;39.70;101388.88;12249324;19;20369;-83
2023/07/06 10:07:46;;;;;;;;;;;26.00;37.50;;;24.97;39.49;101386.53;12257406;19;19923;-84
2023/07/06 10:11:51;;;;;;;;;;;26.00;37.90;;;24.99;39.86;101406.75;12259881;19;19947;-83
2023/07/06 10:15:59;;;;;;;;;;;26.00;37.90;;;25.01;39.65;101403.91;12256988;19;19918;-84
2023/07/06 10:20:09;;;;;;;;;;;26.00;37.90;;;25.02;39.41;101393.06;12258307;19;19939;-84
2023/07/06 10:24:20;;;;;;;;;;;26.00;37.90;;;25.07;39.40;101392.56;12252814;19;19914;-84
2023/07/06 10:28:26;;;;;;;;;;;26.00;37.90;;;25.11;39.30;101384.06;12258815;19;19918;-85
2023/07/06 10:32:37;;;;;;;;;;;26.00;37.90;;;25.17;39.54;101379.94;12255781;19;19985;-85
2023/07/06 10:36:40;;;;;;;;;;;26.10;37.80;;;25.24;39.41;101394.28;12256975;19;19940;-83
2023/07/06 10:40:41;;;;;;;;;;;26.20;37.70;;;25.21;39.05;101393.78;12255129;19;19915;-84
2023/07/06 10:44:46;;;;;;;;;;;26.20;37.70;;;25.24;39.40;101401.47;12252882;19;19910;-83
2023/07/06 10:48:53;;;;;;;;;;;26.30;37.70;;;25.29;39.59;101404.50;12252693;19;19950;-85
2023/07/06 10:53:01;;;;;;;;;;;26.30;37.60;;;25.23;39.54;101400.66;12250254;19;20345;-85
2023/07/06 10:57:10;;;;;;;;;;;26.20;37.60;;;25.29;39.46;101399.16;12251640;19;19943;-83
2023/07/06 11:01:15;;;;;;;;;;;26.30;37.50;;;25.36;39.24;101405.53;12254767;19;19944;-84
2023/07/06 11:05:25;;;;;;;;;;;26.30;37.20;;;25.39;39.03;101391.81;12253923;19;20341;-83
2023/07/06 11:09:28;;;;;;;;;;;26.30;37.60;;;25.47;39.24;101396.34;12253970;19;20527;-85
2023/07/06 11:13:32;;;;;;;;;;;26.40;37.60;;;25.56;39.12;101406.03;12250656;19;19914;-84
2023/07/06 11:17:38;;;;;;;;;;;26.50;37.50;;;25.47;39.41;101386.47;12253607;19;19919;-84
2023/07/06 11:21:47;;;;;;;;;;;26.50;37.30;;;25.67;38.76;101416.41;12252712;19;19910;-85
2023/07/06 11:25:50;;;;;;;;;;;26.60;36.60;;;25.66;38.81;101411.25;12252845;19;20556;-85
2023/07/06 11:29:54;;;;;;;;;;;26.70;37.20;;;25.70;38.80;101407.22;12253164;19;19926;-82
2023/07/06 11:34:26;;;;;;;;;;;26.70;36.20;;;25.86;38.72;101422.47;12252694;19;20338;-84
2023/07/06 11:38:42;;;;;;;;;;;26.80;37.20;;;25.89;39.00;101422.94;12253976;19;19915;-84
2023/07/06 11:43:04;;;;;;;;;;;26.80;36.80;;;25.89;39.03;101428.31;12250325;19;19939;-85
2023/07/06 11:47:23;;;;;;;;;;;26.80;37.10;;;25.86;38.79;101417.94;12253330;19;19926;-85
2023/07/06 11:51:27;;;;;;;;;;;26.80;37.00;;;25.91;38.68;101422.81;12251858;19;20424;-84
2023/07/06 11:55:34;;;;;;;;;;;26.90;37.10;;;25.92;38.88;101430.63;12245701;19;20261;-84
2023/07/06 11:59:37;;;;;;;;;;;26.90;37.10;;;25.87;38.96;101413.41;12249182;19;19923;-85
2023/07/06 12:03:38;;;;;;;;;;;26.80;36.70;;;25.92;38.61;101422.63;12247473;19;20361;-85
2023/07/06 12:07:40;;;;;;;;;;;26.90;37.10;;;25.95;38.56;101443.72;12249565;19;19974;-83
2023/07/06 12:11:42;;;;;;;;;;;26.80;37.10;;;25.86;38.70;101422.47;12248030;19;19937;-85
2023/07/06 12:15:47;;;;;;;;;;;26.80;37.00;;;25.90;38.63;101437.19;12246819;19;20370;-84
2023/07/06 12:19:56;;;;;;;;;;;26.80;36.60;;;25.94;38.39;101444.69;12249348;19;19919;-85
2023/07/06 12:24:03;;;;;;;;;;;26.80;36.60;;;25.97;38.61;101443.53;12246953;19;19935;-84
2023/07/06 12:28:09;;;;;;;;;;;26.80;37.10;;;25.92;38.29;101443.19;12250242;19;19921;-85
2023/07/06 12:32:20;;;;;;;;;;;26.80;36.80;;;25.95;38.48;101448.22;12251768;19;19918;-85
2023/07/06 12:36:24;;;;;;;;;;;26.80;37.00;;;25.91;38.42;101436.19;12249875;19;20316;-85
2023/07/06 12:40:30;;;;;;;;;;;26.80;36.60;;;25.88;38.01;101436.53;12252516;19;19952;-85
2023/07/06 12:44:33;;;;;;;;;;;26.80;36.90;;;25.92;38.40;101437.84;12244628;19;20437;-84
2023/07/06 12:48:40;;;;;;;;;;;26.70;36.70;;;25.93;38.40;101435.00;12247365;19;20389;-84
2023/07/06 12:52:43;;;;;;;;;;;26.70;36.70;;;25.92;38.43;101437.84;12246488;19;19927;-85
2023/07/06 12:56:55;;;;;;;;;;;26.70;36.50;;;25.91;37.93;101437.00;12250912;19;19914;-82
2023/07/06 13:01:04;;;;;;;;;;;26.80;36.60;;;25.94;38.37;101435.84;12249722;19;19919;-84
2023/07/06 13:05:36;;;;;;;;;;;26.70;36.80;;;25.97;38.07;101430.97;12248434;19;19992;-84
2023/07/06 13:09:38;;;;;;;;;;;26.80;36.90;;;26.03;38.32;101434.81;12248969;19;19927;-83
2023/07/06 13:13:42;;;;;;;;;;;26.80;34.70;;;26.14;38.07;101437.19;12243255;19;20246;-84
2023/07/06 13:17:49;;;;;;;;;;;26.90;36.70;;;26.22;37.92;101428.25;12248415;19;19918;-83
2023/07/06 13:21:52;;;;;;;;;;;27.00;36.40;;;26.37;38.26;101439.13;12248123;19;19915;-83
2023/07/06 13:25:55;;;;;;;;;;;27.10;36.40;;;26.38;37.71;101414.88;12247028;19;20338;-85
2023/07/06 13:29:56;;;;;;;;;;;27.30;36.70;;;26.56;38.02;101432.59;12249604;19;20357;-83
2023/07/06 13:33:58;;;;;;;;;;;27.40;36.90;;;26.69;37.90;101430.19;12246498;19;19923;-83
2023/07/06 13:38:00;;;;;;;;;;;27.50;36.90;;;26.78;37.98;101425.63;12272264;19;19915;-84
2023/07/06 13:42:02;;;;;;;;;;;27.60;35.20;;;26.87;37.81;101430.78;12267926;19;19943;-84
2023/07/06 13:46:04;;;;;;;;;;;27.70;36.10;;;26.90;38.15;101433.13;12270910;19;19958;-84
2023/07/06 13:50:06;;;;;;;;;;;27.80;35.90;;;26.98;37.63;101434.06;12268289;19;19919;-83
2023/07/06 13:54:12;;;;;;;;;;;27.80;36.40;;;26.90;37.78;101409.00;12267671;19;20321;-84
2023/07/06 13:58:18;;;;;;;;;;;27.90;36.50;;;26.95;37.55;101415.66;12268794;19;19923;-84
2023/07/06 14:02:21;;;;;;;;;;;27.90;36.40;;;27.00;37.55;101426.69;12267110;19;19930;-83
2023/07/06 14:06:24;;;;;;;;;;;27.90;36.20;;;27.07;37.79;101428.50;12267221;19;19921;-83
2023/07/06 14:10:27;;;;;;;;;;;27.90;36.10;;;27.09;37.54;101423.81;12266566;19;19918;-83
2023/07/06 14:14:29;;;;;;;;;;;27.90;36.30;;;27.07;37.80;101423.13;12272930;19;20001;-85
2023/07/06 14:18:31;;;;;;;;;;;28.00;36.20;;;27.12;37.74;101425.31;12276486;19;20354;-85
2023/07/06 14:22:33;;;;;;;;;;;28.00;36.00;;;27.13;37.39;101422.44;12275785;19;19919;-84
2023/07/06 14:26:35;;;;;;;;;;;28.00;35.70;;;27.07;37.52;101419.63;12277730;19;19914;-85
2023/07/06 14:30:37;;;;;;;;;;;28.00;36.10;;;27.10;37.28;101433.50;12276126;19;19919;-85
2023/07/06 14:34:38;;;;;;;;;;;27.90;36.00;;;27.05;37.21;101421.63;12264804;19;20470;-83
2023/07/06 14:38:40;;;;;;;;;;;27.90;36.20;;;27.13;37.20;101432.31;12264659;19;19918;-84
2023/07/06 14:42:44;;;;;;;;;;;27.90;36.10;;;27.10;36.84;101414.75;12264822;19;20022;-84
2023/07/06 14:46:45;;;;;;;;;;;28.00;36.10;;;27.14;36.86;101415.25;12262849;19;19947;-84
2023/07/06 14:50:47;;;;;;;;;;;28.00;35.80;;;27.30;37.18;101427.72;12257418;19;19975;-84
2023/07/06 14:54:48;;;;;;;;;;;28.00;35.60;;;27.30;36.98;101420.53;12249423;19;19915;-83
2023/07/06 14:58:50;;;;;;;;;;;28.10;35.60;;;27.39;37.18;101426.66;12253531;19;20358;-83
2023/07/06 15:02:52;;;;;;;;;;;28.20;35.90;;;27.40;37.04;101411.41;12253722;19;19923;-83
2023/07/06 15:06:54;;;;;;;;;;;28.20;35.90;;;27.45;36.69;101419.75;12252530;19;19922;-83
2023/07/06 15:10:55;;;;;;;;;;;28.30;35.90;;;27.52;37.10;101426.09;12255867;19;19925;-83
2023/07/06 15:14:58;;;;;;;;;;;28.30;35.80;;;27.53;36.75;101438.47;12249173;19;19948;-83
2023/07/06 15:19:00;;;;;;;;;;;28.30;35.00;;;27.47;36.94;101423.09;12256205;19;19936;-84
2023/07/06 15:23:01;;;;;;;;;;;28.30;35.40;;;27.49;36.94;101423.72;12254227;19;19944;-83
2023/07/06 15:27:03;;;;;;;;;;;28.30;35.50;;;27.55;36.75;101428.41;12254447;19;19918;-83
2023/07/06 15:31:05;;;;;;;;;;;28.30;35.80;;;27.57;36.56;101421.00;12257037;19;19926;-83
2023/07/06 15:35:06;;;;;;;;;;;28.30;35.20;;;27.65;36.62;101428.16;12251881;19;20266;-83
2023/07/06 15:39:08;;;;;;;;;;;28.40;35.60;;;27.67;36.76;101418.91;12256041;19;19919;-82
2023/07/06 15:43:10;;;;;;;;;;;28.40;35.50;;;27.70;36.51;101413.16;12245649;19;20265;-84
2023/07/06 15:47:11;;;;;;;;;;;28.50;34.90;;;27.62;36.34;101397.13;12251253;19;19919;-84
2023/07/06 15:51:13;;;;;;;;;;;28.50;35.40;;;27.68;36.17;101412.53;12249645;19;19919;-84
2023/07/06 15:55:15;;;;;;;;;;;28.50;35.30;;;27.53;36.35;101384.81;12246566;19;19999;-83
2023/07/06 15:59:16;;;;;;;;;;;28.50;35.30;;;27.74;36.36;101419.84;12247319;19;19945;-84
2023/07/06 16:03:18;;;;;;;;;;;28.50;35.40;;;27.74;36.28;101419.03;12248012;19;19974;-83
2023/07/06 16:07:20;;;;;;;;;;;28.50;35.10;;;27.71;36.18;101424.75;12248472;19;19915;-83
2023/07/06 16:11:33;;;;;;;;;;;28.50;35.00;;;27.71;36.23;101422.09;12247896;19;19932;-83
2023/07/06 16:15:34;;;;;;;;;;;28.50;35.20;;;27.68;35.98;101417.91;12245388;19;19919;-83
2023/07/06 16:19:36;;;;;;;;;;;28.40;35.10;;;27.69;36.13;101424.94;12246556;19;20337;-83
2023/07/06 16:23:38;;;;;;;;;;;28.40;35.10;;;27.69;35.87;101438.34;12247033;19;19923;-83
2023/07/06 16:27:39;;;;;;;;;;;28.40;35.10;;;27.57;35.85;101419.16;12247688;19;19918;-83
2023/07/06 16:31:41;;;;;;;;;;;28.40;34.90;;;27.41;35.83;101397.81;12243448;19;19914;-83
2023/07/06 16:35:43;;;;;;;;;;;28.30;35.00;;;27.48;35.66;101419.38;12243337;19;19923;-84
2023/07/06 16:39:44;;;;;;;;;;;28.30;35.10;;;27.40;35.99;101416.78;12244787;19;20349;-83
2023/07/06 16:43:46;;;;;;;;;;;28.20;35.10;;;27.36;35.64;101427.03;12245713;19;19919;-83
2023/07/06 16:47:48;;;;;;;;;;;28.10;35.10;;;27.28;35.66;101430.59;12243511;19;19919;-83
2023/07/06 16:51:49;;;;;;;;;;;28.10;35.00;;;27.27;35.32;101438.81;12245535;19;19915;-83
2023/07/06 16:55:51;;;;;;;;;;;28.00;35.00;;;27.05;35.93;101414.44;12242259;19;19925;-83
2023/07/06 16:59:52;;;;;;;;;;;27.90;35.00;;;27.19;35.50;101433.50;12247531;19;19915;-84
2023/07/06 17:03:54;;;;;;;;;;;27.80;35.00;;;27.14;35.60;101439.38;12239506;19;19915;-86
2023/07/06 17:07:55;;;;;;;;;;;27.80;35.10;;;27.11;35.63;101427.16;12250141;19;19982;-86
2023/07/06 17:11:58;;;;;;;;;;;27.80;35.20;;;27.08;35.30;101437.38;12247491;19;19985;-86
2023/07/06 17:15:59;;;;;;;;;;;27.80;35.10;;;27.05;35.38;101440.41;12252819;19;19919;-87
2023/07/06 17:20:01;;;;;;;;;;;27.70;35.10;;;27.07;35.44;101439.22;12245073;19;19923;-87
2023/07/06 17:24:03;;;;;;;;;;;27.80;35.20;;;27.05;35.45;101427.00;12248445;19;19935;-86
2023/07/06 17:28:04;;;;;;;;;;;27.80;35.20;;;27.12;35.38;101439.53;12250419;19;19946;-86
2023/07/06 17:32:06;;;;;;;;;;;27.80;35.10;;;27.03;35.51;101432.56;12253307;19;19927;-87
2023/07/06 17:36:08;;;;;;;;;;;27.70;35.00;;;26.97;35.39;101438.59;12243346;19;19928;-86
2023/07/06 17:40:10;;;;;;;;;;;27.70;35.00;;;26.86;35.29;101430.94;12246537;19;19919;-86
2023/07/06 17:44:11;;;;;;;;;;;27.70;35.10;;;26.95;35.33;101451.38;12247611;19;19990;-85
2023/07/06 17:48:12;;;;;;;;;;;27.70;35.00;;;26.88;35.43;101445.03;12247528;19;19907;-86
2023/07/06 17:52:14;;;;;;;;;;;27.60;35.00;;;26.75;35.22;101423.31;12246847;19;20380;-87
2023/07/06 17:56:15;;;;;;;;;;;27.60;35.00;;;26.81;35.23;101449.41;12243564;19;19907;-87
2023/07/06 18:00:17;;;;;;;;;;;27.50;35.00;;;26.77;35.55;101442.72;12249459;19;19923;-86
2023/07/06 18:04:19;;;;;;;;;;;27.50;35.10;;;26.81;35.25;101454.75;12248421;19;20531;-87
2023/07/06 18:08:20;;;;;;;;;;;27.50;35.10;;;26.76;35.17;101457.97;12250170;19;19923;-87
2023/07/06 18:12:22;;;;;;;;;;;27.40;35.00;;;26.72;35.33;101467.34;12246210;19;19982;-86
2023/07/06 18:16:23;;;;;;;;;;;27.40;35.10;;;26.66;34.92;101454.66;12245393;19;19963;-88